createdAt,value
2022-09-20T00:00:55.879Z,6.15
2022-09-20T00:01:55.809Z,6.16
2022-09-20T00:02:55.805Z,6.15
2022-09-20T00:03:55.802Z,6.15
2022-09-20T00:04:55.824Z,6.13
2022-09-20T00:05:55.766Z,6.13
2022-09-20T00:06:55.767Z,6.15
2022-09-20T00:07:55.826Z,6.12
2022-09-20T00:08:55.755Z,6.12
2022-09-20T00:09:55.737Z,6.15
2022-09-20T00:10:55.737Z,6.16
2022-09-20T00:11:55.723Z,6.18
2022-09-20T00:12:55.689Z,6.16
2022-09-20T00:13:55.761Z,6.21
2022-09-20T00:14:55.683Z,6.25
2022-09-20T00:15:55.674Z,6.27
2022-09-20T00:16:55.704Z,6.28
2022-09-20T00:17:55.662Z,6.32
2022-09-20T00:18:55.630Z,6.35
2022-09-20T00:19:55.615Z,6.42
2022-09-20T00:20:55.641Z,6.47
2022-09-20T00:21:55.599Z,6.53
2022-09-20T00:22:55.602Z,6.55
2022-09-20T00:23:55.573Z,6.61
2022-09-20T00:24:55.590Z,6.63
2022-09-20T00:25:55.557Z,6.65
2022-09-20T00:26:55.549Z,6.65
2022-09-20T00:27:55.532Z,6.65
2022-09-20T00:28:55.584Z,6.65
2022-09-20T00:29:55.515Z,6.68
2022-09-20T00:30:55.546Z,6.64
2022-09-20T00:31:55.517Z,6.64
2022-09-20T00:32:55.495Z,6.61
2022-09-20T00:33:55.474Z,6.60
2022-09-20T00:34:55.465Z,6.61
2022-09-20T00:35:55.467Z,6.60
2022-09-20T00:36:55.454Z,6.57
2022-09-20T00:37:55.435Z,6.57
2022-09-20T00:38:55.459Z,6.56
2022-09-20T00:39:55.405Z,6.57
2022-09-20T00:40:55.432Z,6.61
2022-09-20T00:41:55.395Z,6.61
2022-09-20T00:42:55.391Z,6.61
2022-09-20T00:43:55.410Z,6.64
2022-09-20T00:44:55.353Z,6.65
2022-09-20T00:45:55.443Z,6.67
2022-09-20T00:46:55.351Z,6.68
2022-09-20T00:47:55.322Z,6.70
2022-09-20T00:48:55.319Z,6.71
2022-09-20T00:49:55.311Z,6.71
2022-09-20T00:50:55.338Z,6.73
2022-09-20T00:51:55.301Z,6.71
2022-09-20T00:52:55.280Z,6.70
2022-09-20T00:53:55.272Z,6.70
2022-09-20T00:54:55.261Z,6.68
2022-09-20T00:55:55.231Z,6.68
2022-09-20T00:56:55.256Z,6.70
2022-09-20T00:57:55.218Z,6.71
2022-09-20T00:58:55.238Z,6.68
2022-09-20T00:59:55.205Z,6.68
2022-09-20T01:00:55.265Z,6.67
2022-09-20T01:01:55.252Z,6.67
2022-09-20T01:02:55.171Z,6.67
2022-09-20T01:03:55.167Z,6.64
2022-09-20T01:04:55.150Z,6.67
2022-09-20T01:05:55.145Z,6.67
2022-09-20T01:06:55.160Z,6.67
2022-09-20T01:07:55.110Z,6.67
2022-09-20T01:08:55.113Z,6.67
2022-09-20T01:09:55.088Z,6.64
2022-09-20T01:10:55.095Z,6.63
2022-09-20T01:11:55.092Z,6.60
2022-09-20T01:12:55.067Z,6.60
2022-09-20T01:13:55.119Z,6.56
2022-09-20T01:14:55.057Z,6.55
2022-09-20T01:15:55.030Z,6.52
2022-09-20T01:16:55.119Z,6.50
2022-09-20T01:17:55.012Z,6.46
2022-09-20T01:18:55.040Z,6.43
2022-09-20T01:19:54.988Z,6.42
2022-09-20T01:20:54.991Z,6.38
2022-09-20T01:21:55.005Z,6.37
2022-09-20T01:22:54.969Z,6.38
2022-09-20T01:23:54.940Z,6.38
2022-09-20T01:24:54.945Z,6.38
2022-09-20T01:25:54.924Z,6.35
2022-09-20T01:26:54.932Z,6.37
2022-09-20T01:27:54.910Z,6.34
2022-09-20T01:28:54.998Z,6.31
2022-09-20T01:29:54.888Z,6.30
2022-09-20T01:30:54.918Z,6.27
2022-09-20T01:31:54.952Z,6.24
2022-09-20T01:32:54.878Z,6.21
2022-09-20T01:33:54.840Z,6.19
2022-09-20T01:34:54.832Z,6.15
2022-09-20T01:35:54.814Z,6.13
2022-09-20T01:36:54.820Z,6.12
2022-09-20T01:37:54.822Z,6.11
2022-09-20T01:38:54.826Z,6.09
2022-09-20T01:39:54.775Z,6.06
2022-09-20T01:40:54.777Z,6.08
2022-09-20T01:41:54.762Z,6.03
2022-09-20T01:42:54.778Z,6.05
2022-09-20T01:43:54.734Z,6.05
2022-09-20T01:44:54.734Z,6.03
2022-09-20T01:45:54.775Z,6.02
2022-09-20T01:46:54.726Z,6.02
2022-09-20T01:47:54.717Z,6.03
2022-09-20T01:48:54.699Z,6.03
2022-09-20T01:49:54.732Z,6.05
2022-09-20T01:50:54.669Z,6.00
2022-09-20T01:51:54.654Z,5.98
2022-09-20T01:52:54.898Z,5.95
2022-09-20T01:53:54.633Z,5.95
2022-09-20T01:54:54.633Z,5.94
2022-09-20T01:55:54.606Z,5.93
2022-09-20T01:56:54.612Z,5.91
2022-09-20T01:57:54.609Z,5.91
2022-09-20T01:59:19.437Z,5.90
2022-09-20T01:59:54.588Z,5.90
2022-09-20T02:00:54.621Z,5.88
2022-09-20T02:01:54.686Z,5.87
2022-09-20T02:02:54.651Z,5.90
2022-09-20T02:03:54.515Z,5.88
2022-09-20T02:04:54.557Z,5.88
2022-09-20T02:05:54.551Z,5.87
2022-09-20T02:06:54.501Z,5.87
2022-09-20T02:07:54.488Z,5.87
2022-09-20T02:08:54.520Z,5.88
2022-09-20T02:09:54.469Z,5.90
2022-09-20T02:10:54.449Z,5.88
2022-09-20T02:11:54.460Z,5.88
2022-09-20T02:12:54.429Z,5.87
2022-09-20T02:13:54.451Z,5.85
2022-09-20T02:14:54.434Z,5.85
2022-09-20T02:15:54.410Z,5.84
2022-09-20T02:16:54.538Z,5.84
2022-09-20T02:17:54.403Z,5.82
2022-09-20T02:18:54.380Z,5.80
2022-09-20T02:19:54.393Z,5.79
2022-09-20T02:20:54.346Z,5.77
2022-09-20T02:21:54.346Z,5.76
2022-09-20T02:22:54.393Z,5.72
2022-09-20T02:23:54.340Z,5.72
2022-09-20T02:24:54.322Z,5.70
2022-09-20T02:25:54.296Z,5.67
2022-09-20T02:26:54.277Z,5.66
2022-09-20T02:27:54.297Z,5.62
2022-09-20T02:28:54.445Z,5.65
2022-09-20T02:29:54.284Z,5.65
2022-09-20T02:30:54.250Z,5.62
2022-09-20T02:31:54.324Z,5.59
2022-09-20T02:32:54.222Z,5.58
2022-09-20T02:33:54.236Z,5.57
2022-09-20T02:34:54.197Z,5.54
2022-09-20T02:35:54.200Z,5.54
2022-09-20T02:36:54.194Z,5.48
2022-09-20T02:37:54.177Z,5.47
2022-09-20T02:38:54.272Z,5.43
2022-09-20T02:39:54.176Z,5.43
2022-09-20T02:40:54.140Z,5.40
2022-09-20T02:41:54.123Z,5.37
2022-09-20T02:42:54.110Z,5.36
2022-09-20T02:43:54.116Z,5.33
2022-09-20T02:44:54.135Z,5.33
2022-09-20T02:45:54.144Z,5.30
2022-09-20T02:46:54.078Z,5.30
2022-09-20T02:47:54.070Z,5.30
2022-09-20T02:48:54.060Z,5.29
2022-09-20T02:49:54.043Z,5.29
2022-09-20T02:50:54.056Z,5.27
2022-09-20T02:51:54.031Z,5.25
2022-09-20T02:52:54.007Z,5.24
2022-09-20T02:53:54.013Z,5.24
2022-09-20T02:54:54.012Z,5.21
2022-09-20T02:55:53.988Z,5.21
2022-09-20T02:56:53.976Z,5.19
2022-09-20T02:57:53.958Z,5.16
2022-09-20T02:58:53.966Z,5.18
2022-09-20T02:59:53.977Z,5.16
2022-09-20T03:00:53.987Z,5.15
2022-09-20T03:01:54.052Z,5.14
2022-09-20T03:02:53.908Z,5.12
2022-09-20T03:04:00.414Z,5.09
2022-09-20T03:04:53.898Z,5.07
2022-09-20T03:05:53.897Z,5.06
2022-09-20T03:06:53.874Z,5.04
2022-09-20T03:07:53.880Z,5.06
2022-09-20T03:08:53.845Z,5.04
2022-09-20T03:09:53.868Z,5.03
2022-09-20T03:10:53.859Z,5.03
2022-09-20T03:11:53.904Z,5.00
2022-09-20T03:12:53.808Z,4.98
2022-09-20T03:13:53.804Z,4.97
2022-09-20T03:14:53.800Z,4.97
2022-09-20T03:15:53.776Z,4.94
2022-09-20T03:16:53.870Z,4.96
2022-09-20T03:17:53.772Z,4.96
2022-09-20T03:18:53.739Z,4.91
2022-09-20T03:19:53.760Z,4.88
2022-09-20T03:20:53.752Z,4.88
2022-09-20T03:21:53.735Z,4.91
2022-09-20T03:22:53.717Z,4.89
2022-09-20T03:23:53.783Z,4.88
2022-09-20T03:24:53.679Z,4.89
2022-09-20T03:25:53.725Z,4.88
2022-09-20T03:26:53.675Z,4.86
2022-09-20T03:27:53.673Z,4.85
2022-09-20T03:28:53.646Z,4.85
2022-09-20T03:29:53.636Z,4.86
2022-09-20T03:30:53.629Z,4.83
2022-09-20T03:31:53.707Z,4.83
2022-09-20T03:32:53.652Z,4.79
2022-09-20T03:33:53.619Z,4.85
2022-09-20T03:34:53.584Z,4.82
2022-09-20T03:35:53.580Z,4.83
2022-09-20T03:36:53.561Z,4.82
2022-09-20T03:37:53.572Z,4.86
2022-09-20T03:38:53.561Z,4.88
2022-09-20T03:39:53.532Z,4.91
2022-09-20T03:40:53.647Z,4.94
2022-09-20T03:41:53.521Z,4.97
2022-09-20T03:42:53.492Z,4.96
2022-09-20T03:43:53.524Z,4.98
2022-09-20T03:44:53.482Z,5.01
2022-09-20T03:45:53.496Z,5.01
2022-09-20T03:46:53.492Z,5.03
2022-09-20T03:47:53.452Z,5.04
2022-09-20T03:48:53.432Z,5.03
2022-09-20T03:49:53.454Z,5.06
2022-09-20T03:50:53.484Z,5.09
2022-09-20T03:51:53.419Z,5.09
2022-09-20T03:52:53.395Z,5.12
2022-09-20T03:53:53.460Z,5.14
2022-09-20T03:54:53.395Z,5.16
2022-09-20T03:55:53.368Z,5.19
2022-09-20T03:56:53.376Z,5.25
2022-09-20T03:57:53.352Z,5.32
2022-09-20T03:58:53.337Z,5.33
2022-09-20T03:59:53.356Z,5.37
2022-09-20T04:00:53.333Z,5.43
2022-09-20T04:01:53.367Z,5.48
2022-09-20T04:02:53.820Z,5.52
2022-09-20T04:03:53.298Z,5.55
2022-09-20T04:04:53.287Z,5.57
2022-09-20T04:05:53.278Z,5.59
2022-09-20T04:06:53.251Z,5.58
2022-09-20T04:07:53.260Z,5.61
2022-09-20T04:08:53.364Z,5.65
2022-09-20T04:09:53.266Z,5.66
2022-09-20T04:10:53.229Z,5.69
2022-09-20T04:11:53.202Z,5.72
2022-09-20T04:12:53.180Z,5.72
2022-09-20T04:13:53.187Z,5.75
2022-09-20T04:14:53.171Z,5.75
2022-09-20T04:15:53.187Z,5.77
2022-09-20T04:16:53.230Z,5.79
2022-09-20T04:17:53.152Z,5.84
2022-09-20T04:18:53.126Z,5.84
2022-09-20T04:19:53.132Z,5.85
2022-09-20T04:20:53.208Z,5.88
2022-09-20T04:21:53.099Z,5.91
2022-09-20T04:22:53.126Z,5.93
2022-09-20T04:23:53.181Z,5.94
2022-09-20T04:24:53.071Z,5.95
2022-09-20T04:25:53.072Z,5.98
2022-09-20T04:26:53.044Z,6.02
2022-09-20T04:27:53.037Z,6.03
2022-09-20T04:28:53.050Z,6.06
2022-09-20T04:29:53.043Z,6.09
2022-09-20T04:30:53.032Z,6.11
2022-09-20T04:31:54.289Z,6.12
2022-09-20T04:32:52.976Z,6.15
2022-09-20T04:33:52.987Z,6.16
2022-09-20T04:34:52.960Z,6.16
2022-09-20T04:35:52.970Z,6.18
2022-09-20T04:36:52.954Z,6.24
2022-09-20T04:37:52.941Z,6.25
2022-09-20T04:38:52.991Z,6.27
2022-09-20T04:39:52.909Z,6.28
2022-09-20T04:40:52.896Z,6.30
2022-09-20T04:41:52.911Z,6.32
2022-09-20T04:42:52.886Z,6.34
2022-09-20T04:43:52.886Z,6.37
2022-09-20T04:44:52.813Z,6.38
2022-09-20T04:45:52.872Z,6.40
2022-09-20T04:46:56.111Z,6.42
2022-09-20T04:47:52.828Z,6.43
2022-09-20T04:48:52.805Z,6.43
2022-09-20T04:49:52.774Z,6.45
2022-09-20T04:50:52.789Z,6.45
2022-09-20T04:51:52.822Z,6.45
2022-09-20T04:52:52.780Z,6.46
2022-09-20T04:53:52.780Z,6.49
2022-09-20T04:54:52.702Z,6.49
2022-09-20T04:55:52.683Z,6.49
2022-09-20T04:56:52.750Z,6.47
2022-09-20T04:57:52.672Z,6.50
2022-09-20T04:58:52.714Z,6.50
2022-09-20T04:59:52.656Z,6.52
2022-09-20T05:00:52.688Z,6.55
2022-09-20T05:01:52.665Z,6.55
2022-09-20T05:02:52.637Z,6.55
2022-09-20T05:03:52.598Z,6.56
2022-09-20T05:04:52.581Z,6.60
2022-09-20T05:05:52.604Z,6.57
2022-09-20T05:06:52.578Z,6.56
2022-09-20T05:07:52.587Z,6.61
2022-09-20T05:08:58.014Z,6.57
2022-09-20T05:09:52.554Z,6.57
2022-09-20T05:10:52.536Z,6.57
2022-09-20T05:11:52.554Z,6.60
2022-09-20T05:12:52.534Z,6.60
2022-09-20T05:13:52.518Z,6.63
2022-09-20T05:14:52.489Z,6.63
2022-09-20T05:15:52.485Z,6.64
2022-09-20T05:16:52.525Z,6.63
2022-09-20T05:17:52.486Z,6.63
2022-09-20T05:18:52.478Z,6.61
2022-09-20T05:19:52.431Z,6.63
2022-09-20T05:20:52.416Z,6.63
2022-09-20T05:21:52.417Z,6.64
2022-09-20T05:22:52.413Z,6.67
2022-09-20T05:23:52.395Z,6.67
2022-09-20T05:24:52.366Z,6.68
2022-09-20T05:25:52.375Z,6.70
2022-09-20T05:26:52.354Z,6.73
2022-09-20T05:27:52.407Z,6.73
2022-09-20T05:28:52.352Z,6.78
2022-09-20T05:29:52.330Z,6.79
2022-09-20T05:30:52.311Z,6.82
2022-09-20T05:31:52.363Z,6.81
2022-09-20T05:32:52.317Z,6.82
2022-09-20T05:33:52.298Z,6.83
2022-09-20T05:34:52.272Z,6.83
2022-09-20T05:35:52.276Z,6.83
2022-09-20T05:36:52.255Z,6.85
2022-09-20T05:37:52.252Z,6.83
2022-09-20T05:38:52.258Z,6.83
2022-09-20T05:39:52.271Z,6.79
2022-09-20T05:40:52.208Z,6.82
2022-09-20T05:41:52.217Z,6.81
2022-09-20T05:42:52.188Z,6.79
2022-09-20T05:43:52.193Z,6.78
2022-09-20T05:44:52.184Z,6.75
2022-09-20T05:45:52.198Z,6.78
2022-09-20T05:46:52.169Z,6.75
2022-09-20T05:47:52.136Z,6.74
2022-09-20T05:48:52.173Z,6.75
2022-09-20T05:49:52.177Z,6.74
2022-09-20T05:50:54.786Z,6.78
2022-09-20T05:51:52.105Z,6.78
2022-09-20T05:52:52.116Z,6.81
2022-09-20T05:53:52.168Z,6.82
2022-09-20T05:54:52.089Z,6.83
2022-09-20T05:55:52.099Z,6.85
2022-09-20T05:56:52.035Z,6.88
2022-09-20T05:57:52.052Z,6.91
2022-09-20T05:58:52.027Z,6.96
2022-09-20T05:59:52.027Z,6.97
2022-09-20T06:00:52.051Z,6.99
2022-09-20T06:01:52.003Z,7.03
2022-09-20T06:02:51.975Z,7.03
2022-09-20T06:03:51.999Z,7.08
2022-09-20T06:04:51.955Z,7.11
2022-09-20T06:05:51.986Z,7.21
2022-09-20T06:06:51.933Z,7.26
2022-09-20T06:07:51.944Z,7.31
2022-09-20T06:08:51.920Z,7.40
2022-09-20T06:09:51.914Z,7.47
2022-09-20T06:10:51.905Z,7.49
2022-09-20T06:11:51.910Z,7.55
2022-09-20T06:12:51.876Z,7.58
2022-09-20T06:13:51.909Z,7.62
2022-09-20T06:14:51.848Z,7.66
2022-09-20T06:15:51.854Z,7.71
2022-09-20T06:16:51.926Z,7.77
2022-09-20T06:17:51.832Z,7.78
2022-09-20T06:18:51.823Z,7.83
2022-09-20T06:19:51.804Z,7.86
2022-09-20T06:20:51.806Z,7.87
2022-09-20T06:21:51.822Z,7.91
2022-09-20T06:22:51.791Z,7.92
2022-09-20T06:23:51.757Z,7.92
2022-09-20T06:24:51.747Z,7.95
2022-09-20T06:25:51.757Z,7.96
2022-09-20T06:26:51.738Z,7.98
2022-09-20T06:27:51.733Z,8.02
2022-09-20T06:28:54.231Z,8.02
2022-09-20T06:29:51.736Z,8.04
2022-09-20T06:30:51.726Z,8.05
2022-09-20T06:31:51.670Z,8.06
2022-09-20T06:32:51.670Z,8.09
2022-09-20T06:33:51.668Z,8.10
2022-09-20T06:34:51.659Z,8.14
2022-09-20T06:35:54.686Z,8.14
2022-09-20T06:36:51.648Z,8.19
2022-09-20T06:37:51.633Z,8.20
2022-09-20T06:38:51.620Z,8.23
2022-09-20T06:39:51.587Z,8.26
2022-09-20T06:40:51.592Z,8.32
2022-09-20T06:41:51.573Z,8.34
2022-09-20T06:42:51.592Z,8.37
2022-09-20T06:43:51.563Z,8.39
2022-09-20T06:44:51.550Z,8.44
2022-09-20T06:45:51.574Z,8.50
2022-09-20T06:46:51.550Z,8.55
2022-09-20T06:47:51.512Z,8.60
2022-09-20T06:48:51.508Z,8.65
2022-09-20T06:49:51.526Z,8.70
2022-09-20T06:50:51.488Z,8.75
2022-09-20T06:51:51.473Z,8.85
2022-09-20T06:52:51.481Z,8.92
2022-09-20T06:53:51.450Z,8.98
2022-09-20T06:54:51.454Z,9.09
2022-09-20T06:55:51.436Z,9.19
2022-09-20T06:56:51.423Z,9.30
2022-09-20T06:57:51.466Z,9.37
2022-09-20T06:58:51.402Z,9.52
2022-09-20T06:59:51.385Z,9.69
2022-09-20T07:00:51.457Z,9.88
2022-09-20T07:01:51.385Z,10.03
2022-09-20T07:02:51.377Z,10.26
2022-09-20T07:03:51.339Z,10.42
2022-09-20T07:04:51.340Z,10.55
2022-09-20T07:05:51.333Z,10.58
2022-09-20T07:06:51.322Z,10.61
2022-09-20T07:07:51.315Z,10.64
2022-09-20T07:08:51.305Z,10.70
2022-09-20T07:09:51.299Z,10.80
2022-09-20T07:10:51.283Z,10.83
2022-09-20T07:11:51.258Z,10.87
2022-09-20T07:12:51.248Z,10.95
2022-09-20T07:13:51.249Z,11.04
2022-09-20T07:14:51.259Z,11.13
2022-09-20T07:15:51.312Z,11.19
2022-09-20T07:16:51.273Z,11.23
2022-09-20T07:17:51.217Z,11.20
2022-09-20T07:18:51.235Z,11.22
2022-09-20T07:19:51.169Z,11.25
2022-09-20T07:20:51.183Z,11.27
2022-09-20T07:21:51.171Z,11.27
2022-09-20T07:22:51.156Z,11.27
2022-09-20T07:23:51.174Z,11.31
2022-09-20T07:24:51.121Z,11.36
2022-09-20T07:25:51.126Z,11.46
2022-09-20T07:26:51.189Z,11.54
2022-09-20T07:27:51.104Z,11.62
2022-09-20T07:28:51.147Z,11.69
2022-09-20T07:29:51.086Z,11.77
2022-09-20T07:30:51.074Z,12.04
2022-09-20T07:31:51.115Z,12.15
2022-09-20T07:32:51.042Z,12.26
2022-09-20T07:33:51.035Z,12.41
2022-09-20T07:34:51.026Z,12.66
2022-09-20T07:35:51.008Z,12.91
2022-09-20T07:36:51.027Z,13.11
2022-09-20T07:37:50.990Z,13.29
2022-09-20T07:38:51.080Z,13.38
2022-09-20T07:39:50.958Z,13.40
2022-09-20T07:40:51.066Z,13.46
2022-09-20T07:41:50.984Z,13.54
2022-09-20T07:42:55.509Z,13.60
2022-09-20T07:43:50.970Z,13.58
2022-09-20T07:44:50.927Z,13.58
2022-09-20T07:45:50.946Z,13.53
2022-09-20T07:46:50.943Z,13.35
2022-09-20T07:47:50.875Z,13.16
2022-09-20T07:48:51.115Z,13.13
2022-09-20T07:49:50.895Z,13.14
2022-09-20T07:50:50.880Z,13.29
2022-09-20T07:51:51.245Z,13.27
2022-09-20T07:52:50.842Z,13.20
2022-09-20T07:53:50.820Z,13.20
2022-09-20T07:54:50.830Z,13.08
2022-09-20T07:55:50.802Z,13.01
2022-09-20T07:56:50.797Z,12.88
2022-09-20T07:57:50.789Z,12.76
2022-09-20T07:58:52.562Z,12.66
2022-09-20T07:59:50.751Z,12.63
2022-09-20T08:00:50.789Z,12.68
2022-09-20T08:01:50.780Z,12.66
2022-09-20T08:02:50.752Z,12.63
2022-09-20T08:03:50.719Z,12.62
2022-09-20T08:04:50.712Z,12.68
2022-09-20T08:05:50.696Z,12.73
2022-09-20T08:06:50.697Z,12.81
2022-09-20T08:07:50.760Z,12.87
2022-09-20T08:08:50.676Z,12.90
2022-09-20T08:09:50.652Z,12.90
2022-09-20T08:10:50.647Z,12.99
2022-09-20T08:11:50.615Z,12.98
2022-09-20T08:14:17.362Z,12.95
2022-09-20T08:14:50.626Z,12.93
2022-09-20T08:15:50.585Z,12.91
2022-09-20T08:16:50.671Z,12.73
2022-09-20T08:17:50.575Z,12.72
2022-09-20T08:18:50.563Z,12.79
2022-09-20T08:19:50.541Z,12.81
2022-09-20T08:20:50.536Z,12.76
2022-09-20T08:21:50.540Z,12.76
2022-09-20T08:23:12.535Z,12.79
2022-09-20T08:23:50.503Z,12.84
2022-09-20T08:24:50.488Z,12.90
2022-09-20T08:25:50.472Z,12.93
2022-09-20T08:26:50.483Z,12.88
2022-09-20T08:27:50.462Z,12.96
2022-09-20T08:28:50.459Z,12.93
2022-09-20T08:29:50.585Z,12.98
2022-09-20T08:30:50.443Z,12.95
2022-09-20T08:31:50.455Z,12.86
2022-09-20T08:32:50.459Z,12.73
2022-09-20T08:33:50.398Z,12.69
2022-09-20T08:34:50.444Z,12.66
2022-09-20T08:35:50.372Z,12.65
2022-09-20T08:36:50.370Z,12.68
2022-09-20T08:37:50.679Z,12.80
2022-09-20T08:39:58.456Z,12.87
2022-09-20T08:40:50.439Z,12.93
2022-09-20T08:41:50.311Z,13.14
2022-09-20T08:42:50.301Z,13.20
2022-09-20T08:43:50.320Z,13.21
2022-09-20T08:44:57.801Z,13.27
2022-09-20T08:45:50.299Z,13.45
2022-09-20T08:46:50.268Z,13.49
2022-09-20T08:47:50.234Z,13.53
2022-09-20T08:48:50.241Z,13.54
2022-09-20T08:49:56.390Z,13.61
2022-09-20T08:50:50.250Z,13.78
2022-09-20T08:51:50.199Z,13.85
2022-09-20T08:52:50.215Z,14.09
2022-09-20T08:53:50.185Z,14.11
2022-09-20T08:54:50.203Z,14.13
2022-09-20T08:55:50.164Z,14.27
2022-09-20T08:56:50.168Z,14.40
2022-09-20T08:57:50.147Z,14.56
2022-09-20T08:58:50.133Z,14.59
2022-09-20T08:59:50.134Z,14.64
2022-09-20T09:00:50.157Z,14.79
2022-09-20T09:01:50.091Z,14.95
2022-09-20T09:02:50.117Z,15.05
2022-09-20T09:03:50.071Z,15.22
2022-09-20T09:04:50.071Z,15.19
2022-09-20T09:05:50.079Z,15.27
2022-09-20T09:06:50.056Z,15.45
2022-09-20T09:07:50.056Z,15.45
2022-09-20T09:08:50.028Z,15.52
2022-09-20T09:09:50.027Z,15.59
2022-09-20T09:10:50.020Z,15.54
2022-09-20T09:11:50.037Z,15.35
2022-09-20T09:12:49.997Z,15.30
2022-09-20T09:13:49.982Z,15.29
2022-09-20T09:14:49.974Z,15.35
2022-09-20T09:15:56.596Z,15.45
2022-09-20T09:16:50.026Z,15.43
2022-09-20T09:17:49.934Z,15.41
2022-09-20T09:18:49.989Z,15.27
2022-09-20T09:19:49.933Z,15.30
2022-09-20T09:20:49.909Z,15.29
2022-09-20T09:21:49.955Z,15.27
2022-09-20T09:22:49.901Z,15.27
2022-09-20T09:23:49.863Z,15.22
2022-09-20T09:24:49.876Z,15.08
2022-09-20T09:25:49.842Z,14.99
2022-09-20T09:26:49.834Z,14.71
2022-09-20T09:27:49.883Z,14.61
2022-09-20T09:28:49.924Z,14.67
2022-09-20T09:29:49.827Z,14.71
2022-09-20T09:30:49.798Z,14.92
2022-09-20T09:31:49.885Z,14.90
2022-09-20T09:32:49.782Z,14.74
2022-09-20T09:33:49.791Z,14.78
2022-09-20T09:34:49.774Z,14.93
2022-09-20T09:35:49.752Z,14.89
2022-09-20T09:36:49.763Z,14.86
2022-09-20T09:37:49.721Z,14.82
2022-09-20T09:38:49.734Z,14.97
2022-09-20T09:39:49.701Z,15.25
2022-09-20T09:40:49.732Z,15.33
2022-09-20T09:41:49.704Z,15.56
2022-09-20T09:42:49.706Z,15.93
2022-09-20T09:43:49.662Z,16.03
2022-09-20T09:44:49.662Z,16.02
2022-09-20T09:45:49.687Z,15.85
2022-09-20T09:46:49.626Z,15.70
2022-09-20T09:47:49.623Z,16.03
2022-09-20T09:48:49.644Z,16.57
2022-09-20T09:49:49.597Z,16.88
2022-09-20T09:50:49.616Z,16.95
2022-09-20T09:51:49.574Z,17.16
2022-09-20T09:52:49.574Z,17.39
2022-09-20T09:53:49.572Z,16.99
2022-09-20T09:54:49.560Z,16.76
2022-09-20T09:55:49.541Z,16.61
2022-09-20T09:56:49.545Z,16.43
2022-09-20T09:57:49.517Z,16.32
2022-09-20T09:58:49.520Z,16.18
2022-09-20T09:59:49.605Z,16.09
2022-09-20T10:00:49.523Z,16.13
2022-09-20T10:01:49.611Z,16.34
2022-09-20T10:02:49.462Z,16.40
2022-09-20T10:03:49.454Z,16.26
2022-09-20T10:04:49.445Z,16.16
2022-09-20T10:05:49.439Z,15.95
2022-09-20T10:06:52.343Z,15.72
2022-09-20T10:07:49.400Z,15.56
2022-09-20T10:08:49.408Z,15.36
2022-09-20T10:09:49.378Z,15.38
2022-09-20T10:10:49.387Z,15.36
2022-09-20T10:11:49.370Z,15.62
2022-09-20T10:12:49.367Z,15.70
2022-09-20T10:13:49.345Z,17.01
2022-09-20T10:14:49.353Z,17.90
2022-09-20T10:15:49.335Z,18.39
2022-09-20T10:16:49.395Z,18.64
2022-09-20T10:17:49.300Z,18.02
2022-09-20T10:18:49.306Z,17.62
2022-09-20T10:19:49.299Z,17.34
2022-09-20T10:20:49.277Z,17.07
2022-09-20T10:21:49.321Z,16.97
2022-09-20T10:23:14.663Z,16.64
2022-09-20T10:24:03.255Z,16.26
2022-09-20T10:24:51.588Z,16.00
2022-09-20T10:25:49.216Z,15.77
2022-09-20T10:26:49.228Z,15.73
2022-09-20T10:27:49.210Z,15.62
2022-09-20T10:28:49.199Z,15.44
2022-09-20T10:29:49.176Z,15.38
2022-09-20T10:30:49.232Z,15.29
2022-09-20T10:31:49.202Z,15.19
2022-09-20T10:32:49.165Z,15.14
2022-09-20T10:33:49.144Z,15.10
2022-09-20T10:34:49.127Z,15.08
2022-09-20T10:35:49.140Z,15.04
2022-09-20T10:36:49.289Z,15.01
2022-09-20T10:37:49.608Z,15.03
2022-09-20T10:38:49.719Z,15.03
2022-09-20T10:39:49.112Z,15.07
2022-09-20T10:40:49.075Z,15.11
2022-09-20T10:41:49.140Z,15.22
2022-09-20T10:42:49.072Z,15.38
2022-09-20T10:43:49.028Z,15.51
2022-09-20T10:44:49.047Z,16.18
2022-09-20T10:46:28.044Z,16.40
2022-09-20T10:46:49.037Z,16.40
2022-09-20T10:47:49.000Z,16.34
2022-09-20T10:48:48.970Z,16.28
2022-09-20T10:49:50.961Z,15.99
2022-09-20T10:50:48.971Z,15.87
2022-09-20T10:51:49.134Z,15.88
2022-09-20T10:52:48.952Z,15.87
2022-09-20T10:53:48.933Z,16.00
2022-09-20T10:54:48.929Z,16.94
2022-09-20T10:55:48.907Z,18.18
2022-09-20T10:56:48.909Z,18.67
2022-09-20T10:57:48.918Z,18.52
2022-09-20T10:58:48.877Z,18.48
2022-09-20T10:59:48.963Z,18.39
2022-09-20T11:00:48.881Z,18.68
2022-09-20T11:01:48.908Z,18.18
2022-09-20T11:02:48.847Z,18.11
2022-09-20T11:03:48.846Z,17.63
2022-09-20T11:04:48.811Z,17.39
2022-09-20T11:05:48.816Z,17.49
2022-09-20T11:06:48.805Z,17.30
2022-09-20T11:07:48.804Z,17.16
2022-09-20T11:08:48.785Z,17.06
2022-09-20T11:09:48.773Z,17.06
2022-09-20T11:10:48.743Z,17.02
2022-09-20T11:11:48.835Z,17.02
2022-09-20T11:12:48.722Z,17.37
2022-09-20T11:13:48.742Z,17.27
2022-09-20T11:14:48.730Z,17.17
2022-09-20T11:15:48.700Z,17.72
2022-09-20T11:16:48.769Z,17.97
2022-09-20T11:17:48.712Z,17.73
2022-09-20T11:18:48.771Z,17.47
2022-09-20T11:19:48.663Z,17.22
2022-09-20T11:20:48.629Z,16.74
2022-09-20T11:21:48.649Z,16.58
2022-09-20T11:22:48.620Z,17.68
2022-09-20T11:23:48.661Z,19.24
2022-09-20T11:24:48.681Z,20.41
2022-09-20T11:25:48.646Z,20.71
2022-09-20T11:26:48.621Z,21.00
2022-09-20T11:27:48.574Z,21.40
2022-09-20T11:28:48.561Z,20.95
2022-09-20T11:29:48.835Z,20.48
2022-09-20T11:30:48.538Z,20.30
2022-09-20T11:31:48.662Z,20.04
2022-09-20T11:32:48.535Z,20.63
2022-09-20T11:33:48.518Z,20.56
2022-09-20T11:34:48.562Z,20.12
2022-09-20T11:35:48.495Z,19.90
2022-09-20T11:36:48.457Z,19.16
2022-09-20T11:37:48.473Z,19.01
2022-09-20T11:38:52.902Z,18.70
2022-09-20T11:39:48.513Z,18.51
2022-09-20T11:40:48.428Z,18.06
2022-09-20T11:41:48.441Z,17.66
2022-09-20T11:42:48.405Z,17.35
2022-09-20T11:43:48.404Z,17.28
2022-09-20T11:44:48.420Z,16.92
2022-09-20T11:45:48.460Z,16.70
2022-09-20T11:46:48.368Z,16.69
2022-09-20T11:47:55.093Z,16.46
2022-09-20T11:48:48.357Z,16.42
2022-09-20T11:49:48.364Z,16.42
2022-09-20T11:50:48.323Z,16.39
2022-09-20T11:51:48.320Z,16.32
2022-09-20T11:52:48.306Z,16.18
2022-09-20T11:53:48.305Z,16.16
2022-09-20T11:54:48.295Z,16.05
2022-09-20T11:55:48.327Z,15.99
2022-09-20T11:56:48.254Z,15.95
2022-09-20T11:57:48.265Z,15.91
2022-09-20T11:58:48.281Z,15.91
2022-09-20T11:59:48.229Z,15.99
2022-09-20T12:00:48.207Z,15.99
2022-09-20T12:01:48.243Z,15.96
2022-09-20T12:02:48.497Z,15.95
2022-09-20T12:03:48.191Z,15.91
2022-09-20T12:04:48.170Z,15.98
2022-09-20T12:05:48.218Z,16.00
2022-09-20T12:06:48.166Z,16.03
2022-09-20T12:07:48.148Z,16.13
2022-09-20T12:08:48.151Z,16.24
2022-09-20T12:09:48.136Z,16.36
2022-09-20T12:10:48.111Z,16.39
2022-09-20T12:11:48.132Z,16.44
2022-09-20T12:12:48.089Z,16.47
2022-09-20T12:13:48.087Z,16.36
2022-09-20T12:14:48.113Z,16.49
2022-09-20T12:15:48.082Z,16.64
2022-09-20T12:16:48.187Z,16.83
2022-09-20T12:17:48.045Z,17.73
2022-09-20T12:18:48.030Z,18.74
2022-09-20T12:19:48.028Z,18.41
2022-09-20T12:20:47.998Z,18.06
2022-09-20T12:21:49.442Z,17.78
2022-09-20T12:22:48.019Z,18.06
2022-09-20T12:23:47.981Z,18.81
2022-09-20T12:24:47.971Z,20.63
2022-09-20T12:25:47.975Z,20.29
2022-09-20T12:26:47.946Z,21.26
2022-09-20T12:27:47.964Z,21.43
2022-09-20T12:28:47.929Z,21.38
2022-09-20T12:29:47.926Z,22.15
2022-09-20T12:30:47.912Z,21.37
2022-09-20T12:31:47.934Z,20.85
2022-09-20T12:32:47.890Z,20.12
2022-09-20T12:33:47.889Z,19.79
2022-09-20T12:34:47.883Z,19.27
2022-09-20T12:35:47.874Z,18.60
2022-09-20T12:36:47.844Z,18.41
2022-09-20T12:37:47.844Z,18.31
2022-09-20T12:38:47.823Z,18.42
2022-09-20T12:39:47.809Z,20.65
2022-09-20T12:40:47.823Z,22.44
2022-09-20T12:41:47.806Z,24.04
2022-09-20T12:42:47.784Z,24.63
2022-09-20T12:43:47.773Z,24.15
2022-09-20T12:44:47.768Z,25.14
2022-09-20T12:45:47.845Z,25.00
2022-09-20T12:46:47.735Z,24.79
2022-09-20T12:47:47.746Z,24.43
2022-09-20T12:48:47.719Z,23.86
2022-09-20T12:49:47.713Z,23.48
2022-09-20T12:50:47.731Z,24.19
2022-09-20T12:51:47.709Z,25.04
2022-09-20T12:52:47.802Z,25.85
2022-09-20T12:53:47.684Z,25.82
2022-09-20T12:54:47.664Z,25.38
2022-09-20T12:55:47.651Z,25.77
2022-09-20T12:56:47.658Z,25.15
2022-09-20T12:57:47.643Z,24.96
2022-09-20T12:58:47.637Z,24.96
2022-09-20T12:59:47.610Z,24.81
2022-09-20T13:00:47.723Z,24.90
2022-09-20T13:01:47.832Z,24.96
2022-09-20T13:02:47.594Z,25.21
2022-09-20T13:03:47.595Z,25.55
2022-09-20T13:04:47.562Z,24.25
2022-09-20T13:05:47.587Z,24.37
2022-09-20T13:06:47.562Z,25.19
2022-09-20T13:07:47.740Z,25.43
2022-09-20T13:08:47.533Z,25.34